KHYS/HYS METAR and TAF weather

Enter ICAO airport designator
Station Type Date Time Source
KHYS METAR 2019/10/14 04:56 UTC NOAA

KHYS 140456Z AUTO 09004KT 10SM CLR 07/00 A2999 RMK AO2 SLP156 T00720000


Station Type Date Time Source
KHYS Decoded METAR 2019/10/14 04:56 UTC NOAA

Hays, Hays Regional Airport, KS, United States (KHYS) 38-51N 099-16W
Oct 14, 2019 - 12:56 AM EDT / 2019.10.14 0456 UTC
Wind: from the E (090 degrees) at 5 MPH (4 KT):0
Visibility: 10 mile(s):0
Sky conditions: clear
Temperature: 45.0 F (7.2 C)
Dew Point: 32.0 F (0.0 C)
Relative Humidity: 60%
Pressure (altimeter): 29.99 in. Hg (1015 hPa)
ob: KHYS 140456Z AUTO 09004KT 10SM CLR 07/00 A2999 RMK AO2 SLP156 T00720000
cycle: 5

Station Type Date Time Source
KHYS TAF 2019/10/14 06:22 UTC NOAA

TAF KHYS 140520Z 1406/1506 09006KT P6SM SKC
FM141700 17011KT P6SM SKC
FM150400 VRB04KT P6SM SKC

Example: see airport list